Coffey, Missouri
Current Conditions -  °F | °C
As of 5:53 PM on Wednesday 22 Oct 2014 (Local Time) from KLWD Reporting Station
Few Clouds Few Clouds  
Wind Chill: 63°   Ceiling: Unl
Heat Index: 63°   Visibility: 10mi
Dew Point: 48°   Wind: 13mph
Humidity: 58%   Direction: 140°SE
Pressure: 30.11"   Gusts: NA
Location:  40.11°N, 94.01°W
Report Text: KLWD 222253Z AUTO 14011KT 10SM FEW075 17/09 A3011 RMK AO2 RAE52 SLP196 P0000 T01720089
Loading
Personal Weather Stations






























Interactive Weather Map
Tropical Storm Tracking
New forecast layout! Learn more

10-Day Weather Forecast

Advertisements
Track Severe Weather on mobile